createdAt,value
2022-12-19T00:00:22.588Z,37
2022-12-19T00:03:52.224Z,34
2022-12-19T00:06:43.907Z,36.3
2022-12-19T00:09:31.715Z,32.3
2022-12-19T00:12:20.823Z,36.9
2022-12-19T00:15:10.619Z,34.1
2022-12-19T00:17:57.902Z,36.6
2022-12-19T00:20:45.157Z,34.8
2022-12-19T00:23:40.099Z,30.5
2022-12-19T00:26:27.878Z,30.4
2022-12-19T00:29:16.826Z,30.2
2022-12-19T00:32:04.242Z,32.3
2022-12-19T00:34:51.577Z,33.4
2022-12-19T00:37:38.972Z,31.5
2022-12-19T00:40:31.645Z,32.2
2022-12-19T00:43:19.245Z,32.3
2022-12-19T00:46:06.624Z,34.1
2022-12-19T00:48:56.958Z,32.3
2022-12-19T00:51:45.303Z,26.5
2022-12-19T00:54:32.964Z,32
2022-12-19T00:57:20.576Z,30.2
2022-12-19T01:00:08.150Z,31.9
2022-12-19T01:02:56.858Z,31.4
2022-12-19T01:05:44.347Z,30.2
2022-12-19T01:08:31.678Z,30
2022-12-19T01:11:19.456Z,32.3
2022-12-19T01:15:30.347Z,32.7
2022-12-19T01:18:17.749Z,28.8
2022-12-19T01:21:05.115Z,31.7
2022-12-19T01:23:55.993Z,29.3
2022-12-19T01:26:43.159Z,31.3
2022-12-19T01:29:30.447Z,33.1
2022-12-19T01:32:20.146Z,32
2022-12-19T01:35:13.392Z,33.8
2022-12-19T01:38:09.048Z,33.6
2022-12-19T01:40:59.223Z,32.8
2022-12-19T01:43:49.719Z,31.3
2022-12-19T01:46:43.009Z,30.6
2022-12-19T01:49:33.158Z,31.9
2022-12-19T01:52:23.878Z,29.2
2022-12-19T01:55:11.335Z,29.8
2022-12-19T01:57:59.288Z,31
2022-12-19T02:00:47.473Z,35.3
2022-12-19T02:03:35.169Z,31.6
2022-12-19T02:06:23.878Z,32
2022-12-19T02:09:12.457Z,31.6
2022-12-19T02:12:00.488Z,32.5
2022-12-19T02:14:48.867Z,30.3
2022-12-19T02:17:38.954Z,31.7
2022-12-19T02:20:39.077Z,33.8
2022-12-19T02:23:52.939Z,35.1
2022-12-19T02:27:14.189Z,30.6
2022-12-19T02:30:43.209Z,28.1
2022-12-19T02:33:39.942Z,30.4
2022-12-19T02:36:32.911Z,30
2022-12-19T02:39:32.157Z,35.3
2022-12-19T02:42:27.254Z,33.5
2022-12-19T02:45:28.508Z,35.1
2022-12-19T02:48:24.437Z,31.2
2022-12-19T02:51:12.486Z,36
2022-12-19T02:53:59.747Z,34.8
2022-12-19T02:56:47.134Z,32.3
2022-12-19T02:59:40.035Z,33.5
2022-12-19T03:02:40.186Z,32
2022-12-19T03:05:39.916Z,32.6
2022-12-19T03:08:35.361Z,34.9
2022-12-19T03:11:29.490Z,33.3
2022-12-19T03:14:20.866Z,35.6
2022-12-19T03:17:09.774Z,36.7
2022-12-19T03:19:57.083Z,32
2022-12-19T03:22:44.674Z,33.2
2022-12-19T03:25:32.204Z,35.1
2022-12-19T03:28:20.664Z,34.9
2022-12-19T03:31:15.923Z,31.3
2022-12-19T03:34:07.053Z,30
2022-12-19T03:37:00.834Z,34.8
2022-12-19T03:39:52.442Z,32.6
2022-12-19T03:42:43.804Z,32.5
2022-12-19T03:46:05.110Z,32
2022-12-19T03:48:58.964Z,31.4
2022-12-19T03:51:46.201Z,32.5
2022-12-19T03:54:39.290Z,32.6
2022-12-19T03:57:33.958Z,29.4
2022-12-19T04:00:27.639Z,29.6
2022-12-19T04:03:15.975Z,27.9
2022-12-19T04:06:06.035Z,32.8
2022-12-19T04:08:54.807Z,29.4
2022-12-19T04:11:44.269Z,21.5
2022-12-19T04:14:36.764Z,29.5
2022-12-19T04:17:24.971Z,26
2022-12-19T04:20:19.266Z,28.5
2022-12-19T04:23:10.469Z,26.3
2022-12-19T04:26:02.930Z,20.7
2022-12-19T04:28:52.489Z,25.7
2022-12-19T04:31:43.613Z,29.2
2022-12-19T04:34:31.826Z,25.2
2022-12-19T04:37:19.699Z,25.5
2022-12-19T04:40:07.193Z,24.3
2022-12-19T04:42:56.356Z,29
2022-12-19T04:45:43.652Z,27
2022-12-19T04:48:31.424Z,27.5
2022-12-19T04:51:20.744Z,26.7
2022-12-19T04:54:07.944Z,25.7
2022-12-19T04:56:55.088Z,26.2
2022-12-19T04:59:42.452Z,25.1
2022-12-19T05:02:30.053Z,23.6
2022-12-19T05:05:17.655Z,24.7
2022-12-19T05:08:05.014Z,26.5
2022-12-19T05:10:52.295Z,28.1
2022-12-19T05:13:43.468Z,25.6
2022-12-19T05:16:30.858Z,25.6
2022-12-19T05:19:18.338Z,27.3
2022-12-19T05:22:05.442Z,25.1
2022-12-19T05:24:52.627Z,24.7
2022-12-19T05:27:39.798Z,23.9
2022-12-19T05:30:27.094Z,24.8
2022-12-19T05:33:14.312Z,28.1
2022-12-19T05:36:01.521Z,26.4
2022-12-19T05:38:49.178Z,26.8
2022-12-19T05:41:36.428Z,24.4
2022-12-19T05:44:23.712Z,26.3
2022-12-19T05:47:11.741Z,23.7
2022-12-19T05:49:58.916Z,24.9
2022-12-19T05:52:46.603Z,21.4
2022-12-19T05:55:34.027Z,24.7
2022-12-19T05:58:21.304Z,20.8
2022-12-19T06:01:08.451Z,24.2
2022-12-19T06:03:57.983Z,21.3
2022-12-19T06:06:45.270Z,23.8
2022-12-19T06:09:32.583Z,23.3
2022-12-19T06:12:20.179Z,22.6
2022-12-19T06:15:07.531Z,23.7
2022-12-19T06:17:55.939Z,22.5
2022-12-19T06:20:43.509Z,23.5
2022-12-19T06:23:41.557Z,21.9
2022-12-19T06:26:29.469Z,21.8
2022-12-19T06:29:16.767Z,22
2022-12-19T06:32:04.088Z,24.4
2022-12-19T06:35:04.195Z,21.8
2022-12-19T06:37:56.604Z,21.6
2022-12-19T06:40:48.134Z,25.2
2022-12-19T06:44:07.391Z,22.8
2022-12-19T06:46:58.179Z,23.2
2022-12-19T06:49:45.543Z,21.2
2022-12-19T06:52:33.549Z,21.8
2022-12-19T06:55:20.961Z,22.3
2022-12-19T06:58:08.172Z,24.1
2022-12-19T07:00:55.685Z,23.7
2022-12-19T07:03:43.005Z,23.9
2022-12-19T07:06:31.601Z,21.2
2022-12-19T07:09:19.702Z,21.7
2022-12-19T07:12:07.208Z,20.4
2022-12-19T07:14:54.422Z,23.6
2022-12-19T07:17:41.707Z,23.1
2022-12-19T07:20:29.017Z,23.7
2022-12-19T07:23:19.684Z,21.4
2022-12-19T07:26:07.442Z,21.4
2022-12-19T07:28:54.951Z,23
2022-12-19T07:31:42.740Z,21.6
2022-12-19T07:34:30.185Z,21.7
2022-12-19T07:37:17.423Z,24.6
2022-12-19T07:40:05.978Z,22.5
2022-12-19T07:42:55.369Z,21.5
2022-12-19T07:45:45.098Z,22
2022-12-19T07:48:32.401Z,23.2
2022-12-19T07:51:20.232Z,20.8
2022-12-19T07:54:07.510Z,20.4
2022-12-19T07:56:55.020Z,21.9
2022-12-19T07:59:42.273Z,20.1
2022-12-19T08:02:29.715Z,20.1
2022-12-19T08:05:17.693Z,22.7
2022-12-19T08:08:05.028Z,22
2022-12-19T08:10:53.350Z,21.1
2022-12-19T08:13:46.137Z,22.4
2022-12-19T08:16:49.323Z,22.2
2022-12-19T08:19:43.084Z,23.2
2022-12-19T08:22:30.360Z,21.8
2022-12-19T08:25:17.764Z,22
2022-12-19T08:28:04.923Z,20.9
2022-12-19T08:30:52.262Z,21.7
2022-12-19T08:33:37.947Z,24.3
2022-12-19T08:36:25.556Z,20.1
2022-12-19T08:39:13.442Z,19
2022-12-19T08:42:00.842Z,23.1
2022-12-19T08:44:48.460Z,21.3
2022-12-19T08:47:35.770Z,22.5
2022-12-19T08:50:23.031Z,20.9
2022-12-19T08:53:10.769Z,20.4
2022-12-19T08:55:58.006Z,21.2
2022-12-19T08:58:48.108Z,22.1
2022-12-19T09:01:37.099Z,18.5
2022-12-19T09:05:57.273Z,21.2
2022-12-19T09:08:52.699Z,19
2022-12-19T09:11:46.686Z,22.7
2022-12-19T09:14:35.524Z,19
2022-12-19T09:17:22.870Z,16.8
2022-12-19T09:20:10.130Z,20.3
2022-12-19T09:22:57.582Z,19.8
2022-12-19T09:25:44.874Z,19.1
2022-12-19T09:28:32.221Z,23.9
2022-12-19T09:31:21.300Z,18.7
2022-12-19T09:34:10.543Z,20.2
2022-12-19T09:36:57.858Z,20.4
2022-12-19T09:39:45.127Z,20.6
2022-12-19T09:42:40.646Z,22.6
2022-12-19T09:45:41.534Z,22.3
2022-12-19T09:48:40.148Z,22.8
2022-12-19T09:51:27.717Z,22.5
2022-12-19T09:54:20.293Z,23.1
2022-12-19T09:57:12.573Z,23.7
2022-12-19T10:00:04.565Z,23.4
2022-12-19T10:02:57.724Z,21.5
2022-12-19T10:07:11.875Z,21.1
2022-12-19T10:12:34.521Z,21.4
2022-12-19T10:15:44.695Z,19.7
2022-12-19T10:18:41.627Z,20.8
2022-12-19T10:22:15.633Z,20.6
2022-12-19T10:25:25.383Z,19.3
2022-12-19T10:28:25.621Z,20.3
2022-12-19T10:31:27.873Z,19.5
2022-12-19T10:34:21.770Z,19.1
2022-12-19T10:37:27.323Z,18.3
2022-12-19T10:40:29.022Z,21.8
2022-12-19T10:43:28.650Z,19.3
2022-12-19T10:46:32.098Z,18.3
2022-12-19T10:49:24.871Z,21.3
2022-12-19T10:52:13.040Z,19.2
2022-12-19T10:55:00.989Z,20.6
2022-12-19T10:58:06.463Z,20.1
2022-12-19T11:01:04.902Z,22.8
2022-12-19T11:03:59.978Z,20.6
2022-12-19T11:07:20.967Z,17.8
2022-12-19T11:10:43.474Z,21.1
2022-12-19T11:19:40.843Z,20.8
2022-12-19T11:32:40.317Z,21.1
2022-12-19T11:35:36.961Z,21.1
2022-12-19T11:38:34.310Z,20.5
2022-12-19T11:41:26.992Z,19.3
2022-12-19T11:44:20.317Z,18.6
2022-12-19T11:47:15.344Z,19
2022-12-19T11:50:12.484Z,18.4
2022-12-19T11:53:14.593Z,18.7
2022-12-19T11:56:15.864Z,19.5
2022-12-19T11:59:08.189Z,20.3
2022-12-19T12:02:02.725Z,21.1
2022-12-19T12:05:08.516Z,19.6
2022-12-19T12:11:31.020Z,19
2022-12-19T12:31:05.688Z,18.4
2022-12-19T12:38:25.848Z,18.2
2022-12-19T12:41:30.347Z,17.9
2022-12-19T12:45:00.486Z,19.5
2022-12-19T12:48:02.664Z,21.4
2022-12-19T12:51:02.812Z,22.6
2022-12-19T12:53:51.877Z,20.5
2022-12-19T12:56:44.900Z,20.6
2022-12-19T12:59:33.165Z,16.7
2022-12-19T13:02:21.210Z,19.4
2022-12-19T13:05:10.462Z,21.6
2022-12-19T13:08:14.534Z,17.5
2022-12-19T13:11:16.018Z,18.5
2022-12-19T13:14:54.988Z,19.2
2022-12-19T13:18:04.484Z,20.6
2022-12-19T13:21:00.538Z,18.8
2022-12-19T13:23:51.667Z,21.6
2022-12-19T13:26:58.538Z,19.6
2022-12-19T13:29:45.840Z,19.1
2022-12-19T13:32:39.415Z,18.1
2022-12-19T13:39:52.108Z,21.4
2022-12-19T13:43:13.312Z,20.8
2022-12-19T13:46:35.983Z,20.2
2022-12-19T13:49:28.835Z,17.9
2022-12-19T13:52:21.046Z,17.9
2022-12-19T13:55:08.264Z,18.8
2022-12-19T13:57:59.202Z,19
2022-12-19T14:00:53.718Z,17.8
2022-12-19T14:03:45.998Z,19.3
2022-12-19T14:06:35.232Z,19.2
2022-12-19T14:11:31.691Z,20.4
2022-12-19T14:17:58.248Z,17
2022-12-19T14:22:05.793Z,18.9
2022-12-19T14:26:06.067Z,17
2022-12-19T14:31:18.140Z,20.3
2022-12-19T14:34:43.408Z,18.3
2022-12-19T14:39:21.051Z,18.1
2022-12-19T14:42:18.364Z,16.4
2022-12-19T14:54:15.867Z,19.8
2022-12-19T14:58:54.064Z,18.8
2022-12-19T15:01:45.051Z,20.2
2022-12-19T15:04:49.650Z,20.4
2022-12-19T15:07:47.312Z,18.1
2022-12-19T15:11:02.372Z,18.7
2022-12-19T15:14:55.304Z,20.1
2022-12-19T15:18:02.766Z,21.6
2022-12-19T15:21:04.590Z,21.2
2022-12-19T15:23:55.348Z,20.2
2022-12-19T15:26:42.620Z,19.2
2022-12-19T15:29:38.237Z,20
2022-12-19T15:32:26.311Z,21
2022-12-19T15:35:13.581Z,20.6
2022-12-19T15:38:02.487Z,22.9
2022-12-19T15:40:49.764Z,19.3
2022-12-19T15:44:03.260Z,20.3
2022-12-19T15:46:59.285Z,18
2022-12-19T15:49:48.980Z,18.6
2022-12-19T15:52:36.253Z,20.8
2022-12-19T15:55:23.670Z,21.4
2022-12-19T15:58:14.863Z,20.2
2022-12-19T16:01:02.986Z,20.3
2022-12-19T16:03:50.831Z,20
2022-12-19T16:06:40.307Z,21.9
2022-12-19T16:09:27.529Z,19.9
2022-12-19T16:12:14.792Z,22.9
2022-12-19T16:15:04.742Z,20.8
2022-12-19T16:17:59.959Z,23
2022-12-19T16:20:48.911Z,23.1
2022-12-19T16:23:36.236Z,23.5
2022-12-19T16:26:23.489Z,24.1
2022-12-19T16:29:20.094Z,20.9
2022-12-19T16:32:11.619Z,21.2
2022-12-19T16:34:59.494Z,20
2022-12-19T16:37:46.811Z,21.9
2022-12-19T16:40:34.588Z,20.1
2022-12-19T16:43:21.927Z,21
2022-12-19T16:46:15.362Z,20.6
2022-12-19T16:49:04.365Z,23.7
2022-12-19T16:51:58.387Z,23
2022-12-19T16:54:45.664Z,22.5
2022-12-19T16:57:34.279Z,21
2022-12-19T17:00:22.081Z,20.6
2022-12-19T17:03:09.779Z,22.8
2022-12-19T17:06:12.357Z,22.5
2022-12-19T17:09:02.058Z,22.6
2022-12-19T17:11:49.442Z,22.9
2022-12-19T17:14:40.858Z,23.1
2022-12-19T17:17:28.632Z,22.4
2022-12-19T17:20:15.891Z,21.3
2022-12-19T17:23:06.171Z,21.1
2022-12-19T17:26:00.342Z,24
2022-12-19T17:28:48.001Z,23.8
2022-12-19T17:31:35.674Z,22.2
2022-12-19T17:34:24.767Z,21.5
2022-12-19T17:37:15.462Z,21.7
2022-12-19T17:40:03.075Z,20.4
2022-12-19T17:43:01.487Z,21.3
2022-12-19T17:45:48.832Z,22.6
2022-12-19T17:48:37.175Z,22.4
2022-12-19T17:51:24.534Z,23
2022-12-19T17:54:11.829Z,20.9
2022-12-19T17:56:59.259Z,20.9
2022-12-19T17:59:46.937Z,23.3
2022-12-19T18:02:34.935Z,21.4
2022-12-19T18:05:23.213Z,22.1
2022-12-19T18:08:14.561Z,20.3
2022-12-19T18:11:09.989Z,22.6
2022-12-19T18:14:05.725Z,19.4
2022-12-19T18:16:53.128Z,19.3
2022-12-19T18:19:41.219Z,20
2022-12-19T18:22:28.449Z,22.1
2022-12-19T18:25:15.615Z,20.8
2022-12-19T18:28:06.313Z,21.7
2022-12-19T18:30:53.807Z,23.8
2022-12-19T18:33:45.703Z,20.6
2022-12-19T18:36:33.894Z,22.1
2022-12-19T18:39:25.256Z,21.1
2022-12-19T18:42:13.604Z,23.7
2022-12-19T18:45:04.758Z,21.3
2022-12-19T18:47:54.004Z,21.4
2022-12-19T18:50:44.822Z,23.1
2022-12-19T18:53:35.135Z,21
2022-12-19T18:56:23.210Z,21.1
2022-12-19T18:59:10.589Z,22.4
2022-12-19T19:01:58.060Z,22.9
2022-12-19T19:04:45.466Z,25.2
2022-12-19T19:07:32.718Z,23.2
2022-12-19T19:10:20.451Z,22.9
2022-12-19T19:13:10.414Z,23.6
2022-12-19T19:15:58.758Z,22.2
2022-12-19T19:18:50.041Z,23.2
2022-12-19T19:21:39.031Z,22.1
2022-12-19T19:24:27.103Z,22
2022-12-19T19:27:14.458Z,20.6
2022-12-19T19:30:02.401Z,22.7
2022-12-19T19:32:53.005Z,21.7
2022-12-19T19:35:43.014Z,22.2
2022-12-19T19:38:35.689Z,24.6
2022-12-19T19:41:24.454Z,21.2
2022-12-19T19:44:14.195Z,19.5
2022-12-19T19:47:01.503Z,22.7
2022-12-19T19:49:49.061Z,24
2022-12-19T19:52:36.275Z,22.3
2022-12-19T19:55:24.002Z,20.5
2022-12-19T19:58:12.395Z,22.3
2022-12-19T20:00:59.790Z,23.8
2022-12-19T20:03:52.987Z,24
2022-12-19T20:06:40.561Z,20.7
2022-12-19T20:09:27.703Z,21.7
2022-12-19T20:12:15.274Z,21.3
2022-12-19T20:15:02.571Z,23.8
2022-12-19T20:17:50.792Z,22.1
2022-12-19T20:20:38.001Z,20.5
2022-12-19T20:23:25.490Z,22.6
2022-12-19T20:26:12.994Z,22.2
2022-12-19T20:29:01.522Z,21.5
2022-12-19T20:31:51.047Z,23.6
2022-12-19T20:34:38.501Z,21.8
2022-12-19T20:37:25.864Z,22.3
2022-12-19T20:40:13.206Z,21.7
2022-12-19T20:43:00.950Z,21.3
2022-12-19T20:45:48.296Z,20.9
2022-12-19T20:48:35.601Z,23.5
2022-12-19T20:51:23.536Z,21.6
2022-12-19T20:54:10.840Z,22.6
2022-12-19T20:56:59.436Z,21.9
2022-12-19T20:59:46.842Z,20.9
2022-12-19T21:03:00.071Z,20.6
2022-12-19T21:06:04.461Z,19.6
2022-12-19T21:08:53.290Z,21.4
2022-12-19T21:11:41.491Z,19.9
2022-12-19T21:14:29.281Z,22.4
2022-12-19T21:17:16.685Z,20.7
2022-12-19T21:20:04.194Z,20
2022-12-19T21:22:53.435Z,20.2
2022-12-19T21:25:41.231Z,21.9
2022-12-19T21:28:28.493Z,21.1
2022-12-19T21:31:16.569Z,20.7
2022-12-19T21:34:06.232Z,19.8
2022-12-19T21:36:54.665Z,21.8
2022-12-19T21:39:42.009Z,21.7
2022-12-19T21:42:29.412Z,21
2022-12-19T21:45:16.782Z,21.2
2022-12-19T21:48:04.120Z,20.6
2022-12-19T21:50:51.738Z,23.1
2022-12-19T21:53:40.765Z,20.8
2022-12-19T21:56:28.084Z,20.9
2022-12-19T21:59:17.212Z,21.8
2022-12-19T22:02:04.759Z,20.3
2022-12-19T22:04:55.391Z,20
2022-12-19T22:07:42.684Z,21
2022-12-19T22:10:29.909Z,20.9
2022-12-19T22:13:17.168Z,19.3
2022-12-19T22:16:04.677Z,18.6
2022-12-19T22:18:52.802Z,20.3
2022-12-19T22:21:41.029Z,19.6
2022-12-19T22:24:28.705Z,19.8
2022-12-19T22:27:16.109Z,19.2
2022-12-19T22:30:08.742Z,21.6
2022-12-19T22:32:58.989Z,20.7
2022-12-19T22:35:46.373Z,20.2
2022-12-19T22:38:33.866Z,20.1
2022-12-19T22:41:23.699Z,19
2022-12-19T22:44:12.122Z,18.6
2022-12-19T22:47:02.457Z,20.6
2022-12-19T22:49:49.754Z,20.1
2022-12-19T22:52:37.272Z,19.3
2022-12-19T22:55:24.736Z,18.2
2022-12-19T22:58:11.985Z,19.1
2022-12-19T23:00:59.495Z,19.2
2022-12-19T23:03:51.931Z,20.6
2022-12-19T23:06:41.174Z,19.4
2022-12-19T23:09:28.967Z,21
2022-12-19T23:12:16.202Z,19.5
2022-12-19T23:15:04.159Z,20
2022-12-19T23:17:52.394Z,19.4
2022-12-19T23:20:39.622Z,19.5
2022-12-19T23:23:28.249Z,20.3
2022-12-19T23:26:16.241Z,19.9
2022-12-19T23:29:06.740Z,18.5
2022-12-19T23:31:57.455Z,17
2022-12-19T23:34:44.864Z,19.1
2022-12-19T23:37:32.106Z,19
2022-12-19T23:40:19.636Z,18.3
2022-12-19T23:43:07.370Z,18.9
2022-12-19T23:45:54.716Z,17.8
2022-12-19T23:48:42.045Z,16.8
2022-12-19T23:51:30.242Z,17.9
2022-12-19T23:54:17.725Z,16.8
2022-12-19T23:57:04.995Z,16.9
2022-12-19T23:59:52.230Z,17.8
